createdAt,value
2019-02-08T00:01:22.023Z,68.87
2019-02-08T00:03:51.296Z,72.97
2019-02-08T00:06:20.599Z,76.57
2019-02-08T00:08:49.870Z,71.73
2019-02-08T00:11:19.124Z,67.80
2019-02-08T00:13:48.438Z,73.43
2019-02-08T00:16:17.743Z,71.80
2019-02-08T00:18:47.422Z,73.43
2019-02-08T00:21:16.750Z,67.93
2019-02-08T00:23:46.133Z,70.60
2019-02-08T00:26:15.620Z,70.37
2019-02-08T00:28:44.889Z,65.00
2019-02-08T00:31:14.184Z,64.40
2019-02-08T00:33:43.859Z,67.73
2019-02-08T00:36:13.137Z,67.90
2019-02-08T00:38:43.034Z,62.20
2019-02-08T00:41:12.285Z,67.23
2019-02-08T00:43:41.615Z,68.10
2019-02-08T00:46:11.077Z,71.43
2019-02-08T00:48:40.365Z,66.47
2019-02-08T00:51:09.660Z,70.30
2019-02-08T00:53:38.911Z,65.80
2019-02-08T00:56:08.197Z,62.47
2019-02-08T00:58:37.508Z,64.90
2019-02-08T01:01:06.843Z,64.77
2019-02-08T01:03:36.104Z,63.30
2019-02-08T01:06:06.267Z,69.27
2019-02-08T01:08:35.529Z,58.43
2019-02-08T01:11:04.820Z,62.67
2019-02-08T01:13:34.097Z,57.37
2019-02-08T01:16:03.466Z,60.97
2019-02-08T01:18:32.779Z,61.63
2019-02-08T01:21:02.524Z,58.37
2019-02-08T01:23:31.808Z,55.40
2019-02-08T01:26:01.076Z,50.07
2019-02-08T01:28:30.372Z,50.77
2019-02-08T01:30:59.665Z,52.83
2019-02-08T01:33:28.937Z,51.30
2019-02-08T01:35:58.223Z,51.30
2019-02-08T01:38:27.491Z,47.97
2019-02-08T01:40:56.796Z,47.53
2019-02-08T01:43:26.085Z,43.20
2019-02-08T01:45:55.366Z,45.30
2019-02-08T01:48:24.669Z,46.70
2019-02-08T01:50:53.979Z,45.13
2019-02-08T01:53:23.253Z,40.50
2019-02-08T01:55:52.512Z,45.13
2019-02-08T01:58:21.788Z,40.00
2019-02-08T02:00:51.052Z,36.83
2019-02-08T02:03:20.717Z,38.67
2019-02-08T02:05:49.968Z,38.30
2019-02-08T02:08:19.260Z,34.93
2019-02-08T02:10:48.576Z,34.73
2019-02-08T02:13:17.832Z,35.47
2019-02-08T02:15:47.249Z,32.70
2019-02-08T02:18:16.529Z,29.67
2019-02-08T02:20:45.874Z,32.30
2019-02-08T02:23:16.542Z,31.33
2019-02-08T02:25:46.131Z,31.70
2019-02-08T02:28:15.412Z,36.30
2019-02-08T02:30:44.678Z,31.23
2019-02-08T02:33:14.449Z,27.77
2019-02-08T02:35:44.307Z,28.27
2019-02-08T02:38:13.570Z,25.73
2019-02-08T02:40:42.831Z,30.43
2019-02-08T02:43:12.215Z,30.70
2019-02-08T02:45:42.417Z,28.43
2019-02-08T02:48:14.655Z,25.07
2019-02-08T02:50:43.916Z,26.20
2019-02-08T02:53:13.176Z,25.03
2019-02-08T02:55:42.456Z,25.47
2019-02-08T02:58:11.726Z,27.40
2019-02-08T03:00:43.435Z,19.57
2019-02-08T03:03:14.423Z,23.93
2019-02-08T03:05:44.180Z,19.07
2019-02-08T03:08:15.498Z,24.70
2019-02-08T03:10:45.350Z,21.63
2019-02-08T03:13:14.848Z,27.83
2019-02-08T03:15:44.420Z,19.93
2019-02-08T03:18:14.216Z,20.53
2019-02-08T03:20:43.600Z,20.17
2019-02-08T03:23:13.050Z,22.93
2019-02-08T03:25:42.335Z,22.20
2019-02-08T03:28:11.687Z,20.70
2019-02-08T03:30:58.056Z,26.10
2019-02-08T03:33:27.510Z,25.00
2019-02-08T03:35:56.801Z,23.13
2019-02-08T03:38:26.051Z,20.27
2019-02-08T03:40:55.305Z,26.50
2019-02-08T03:43:24.577Z,23.43
2019-02-08T03:45:54.395Z,23.63
2019-02-08T03:48:23.684Z,20.93
2019-02-08T03:50:52.962Z,28.43
2019-02-08T03:53:22.247Z,24.47
2019-02-08T03:55:58.165Z,24.13
2019-02-08T03:58:23.111Z,21.23
2019-02-08T04:00:57.144Z,26.53
2019-02-08T04:03:26.429Z,24.70
2019-02-08T04:05:56.136Z,24.83
2019-02-08T04:08:25.400Z,23.30
2019-02-08T04:10:54.681Z,27.27
2019-02-08T04:13:23.928Z,22.10
2019-02-08T04:15:53.392Z,26.53
2019-02-08T04:18:22.789Z,33.27
2019-02-08T04:20:52.095Z,26.33
2019-02-08T04:23:21.337Z,28.83
2019-02-08T04:25:50.819Z,28.53
2019-02-08T04:28:20.067Z,27.43
2019-02-08T04:30:49.341Z,30.27
2019-02-08T04:33:18.597Z,30.23
2019-02-08T04:35:47.855Z,25.93
2019-02-08T04:38:18.435Z,26.00
2019-02-08T04:40:47.856Z,27.17
2019-02-08T04:43:17.117Z,30.50
2019-02-08T04:45:46.400Z,34.27
2019-02-08T04:48:15.663Z,33.50
2019-02-08T04:50:44.937Z,36.17
2019-02-08T04:53:14.183Z,31.73
2019-02-08T04:55:43.465Z,38.23
2019-02-08T04:58:12.743Z,34.70
2019-02-08T05:00:41.993Z,38.30
2019-02-08T05:03:11.249Z,37.03
2019-02-08T05:05:40.532Z,34.17
2019-02-08T05:08:09.795Z,40.83
2019-02-08T05:10:39.072Z,42.90
2019-02-08T05:13:08.355Z,47.20
2019-02-08T05:15:37.637Z,45.23
2019-02-08T05:18:07.122Z,40.93
2019-02-08T05:20:36.401Z,41.23
2019-02-08T05:23:05.708Z,41.43
2019-02-08T05:25:34.987Z,44.77
2019-02-08T05:28:04.353Z,44.17
2019-02-08T05:30:35.443Z,42.20
2019-02-08T05:33:05.776Z,42.17
2019-02-08T05:35:35.354Z,42.97
2019-02-08T05:38:05.024Z,42.47
2019-02-08T05:40:34.276Z,46.50
2019-02-08T05:43:03.657Z,45.70
2019-02-08T05:45:33.612Z,41.40
2019-02-08T05:48:03.189Z,43.53
2019-02-08T05:50:32.441Z,45.03
2019-02-08T05:53:01.727Z,44.07
2019-02-08T05:55:31.562Z,44.83
2019-02-08T05:58:03.587Z,48.27
2019-02-08T06:00:48.186Z,47.27
2019-02-08T06:03:18.357Z,46.80
2019-02-08T06:05:51.032Z,45.30
2019-02-08T06:08:23.378Z,48.97
2019-02-08T06:10:54.398Z,39.17
2019-02-08T06:13:24.523Z,47.43
2019-02-08T06:15:55.492Z,46.97
2019-02-08T06:18:27.067Z,41.07
2019-02-08T06:20:58.095Z,54.80
2019-02-08T06:23:31.078Z,48.23
2019-02-08T06:26:02.599Z,51.33
2019-02-08T06:28:32.312Z,45.17
2019-02-08T06:31:02.688Z,46.07
2019-02-08T06:33:32.224Z,45.77
2019-02-08T06:36:02.327Z,42.87
2019-02-08T06:38:31.998Z,42.50
2019-02-08T06:41:01.700Z,44.13
2019-02-08T06:43:31.533Z,40.90
2019-02-08T06:46:01.205Z,43.90
2019-02-08T06:48:31.772Z,42.37
2019-02-08T06:51:01.254Z,43.70
2019-02-08T06:53:30.547Z,39.40
2019-02-08T06:55:59.828Z,41.37
2019-02-08T06:58:42.653Z,42.47
2019-02-08T07:01:33.852Z,42.40
2019-02-08T07:04:29.353Z,41.97
2019-02-08T07:07:08.125Z,41.87
2019-02-08T07:10:14.774Z,36.87
2019-02-08T07:13:01.580Z,38.47
2019-02-08T07:15:47.118Z,37.23
2019-02-08T07:18:40.037Z,40.23
2019-02-08T07:21:39.912Z,38.27
2019-02-08T07:24:25.313Z,42.53
2019-02-08T07:27:13.550Z,41.33
2019-02-08T07:29:57.708Z,36.97
2019-02-08T07:32:45.935Z,41.77
2019-02-08T07:35:31.193Z,41.40
2019-02-08T07:38:19.154Z,40.00
2019-02-08T07:41:11.392Z,37.70
2019-02-08T07:44:09.095Z,36.83
2019-02-08T07:47:11.381Z,32.60
2019-02-08T07:50:01.620Z,39.10
2019-02-08T07:52:48.947Z,37.93
2019-02-08T07:55:42.762Z,36.63
2019-02-08T07:58:46.619Z,34.83
2019-02-08T08:01:38.784Z,37.93
2019-02-08T08:04:29.173Z,31.97
2019-02-08T08:07:36.036Z,31.63
2019-02-08T08:10:15.349Z,35.80
2019-02-08T08:13:03.650Z,35.70
2019-02-08T08:15:58.244Z,32.93
2019-02-08T08:18:45.355Z,36.40
2019-02-08T08:21:32.820Z,36.67
2019-02-08T08:24:12.011Z,31.53
2019-02-08T08:27:14.374Z,37.83
2019-02-08T08:30:04.260Z,32.40
2019-02-08T08:32:41.756Z,25.17
2019-02-08T08:35:34.794Z,24.83
2019-02-08T08:38:57.240Z,25.73
2019-02-08T08:41:59.698Z,22.47
2019-02-08T08:45:04.885Z,24.20
2019-02-08T08:47:58.776Z,22.23
2019-02-08T08:50:54.252Z,22.07
2019-02-08T08:54:10.356Z,26.33
2019-02-08T08:57:02.891Z,24.60
2019-02-08T08:59:49.960Z,26.30
2019-02-08T09:02:34.714Z,24.67
2019-02-08T09:05:49.561Z,22.93
2019-02-08T09:08:57.396Z,22.10
2019-02-08T09:11:54.082Z,21.97
2019-02-08T09:15:01.373Z,23.30
2019-02-08T09:18:02.096Z,21.23
2019-02-08T09:21:20.440Z,23.33
2019-02-08T09:24:16.731Z,22.07
2019-02-08T09:27:25.951Z,22.30
2019-02-08T09:30:41.531Z,20.73
2019-02-08T09:33:59.966Z,19.67
2019-02-08T09:37:10.407Z,21.77
2019-02-08T09:40:22.951Z,17.87
2019-02-08T09:43:54.573Z,18.60
2019-02-08T09:47:05.808Z,18.80
2019-02-08T09:50:10.869Z,18.73
2019-02-08T09:53:07.640Z,19.33
2019-02-08T09:56:27.232Z,18.10
2019-02-08T09:59:36.270Z,18.00
2019-02-08T10:02:42.188Z,19.37
2019-02-08T10:05:51.156Z,15.30
2019-02-08T10:09:15.516Z,19.13
2019-02-08T10:12:30.404Z,14.87
2019-02-08T10:15:37.129Z,17.43
2019-02-08T10:19:01.685Z,15.13
2019-02-08T10:22:07.810Z,13.27
2019-02-08T10:25:32.545Z,12.90
2019-02-08T10:28:39.769Z,10.20
2019-02-08T10:31:44.723Z,10.20
2019-02-08T10:34:49.514Z,9.17
2019-02-08T10:37:49.893Z,10.30
2019-02-08T10:40:56.250Z,12.37
2019-02-08T10:44:03.553Z,9.07
2019-02-08T10:47:04.780Z,10.13
2019-02-08T10:49:59.469Z,8.00
2019-02-08T10:53:08.735Z,9.77
2019-02-08T10:56:34.242Z,8.87
2019-02-08T10:59:31.411Z,8.97
2019-02-08T11:02:42.392Z,11.73
2019-02-08T11:05:52.492Z,8.80
2019-02-08T11:09:01.842Z,11.60
2019-02-08T11:12:06.884Z,10.33
2019-02-08T11:15:25.924Z,9.57
2019-02-08T11:18:36.281Z,10.23
2019-02-08T11:21:06.689Z,9.03
2019-02-08T11:23:35.984Z,10.73
2019-02-08T11:26:06.516Z,9.67
2019-02-08T11:28:35.764Z,10.67
2019-02-08T11:31:05.485Z,7.63
2019-02-08T11:33:35.018Z,10.03
2019-02-08T11:36:05.178Z,8.50
2019-02-08T11:38:34.477Z,9.03
2019-02-08T11:41:03.879Z,9.23
2019-02-08T11:43:33.312Z,7.77
2019-02-08T11:46:02.567Z,5.77
2019-02-08T11:48:31.855Z,6.47
2019-02-08T11:51:01.112Z,6.50
2019-02-08T11:53:30.388Z,8.13
2019-02-08T11:55:59.717Z,7.87
2019-02-08T11:58:28.977Z,6.80
2019-02-08T12:00:59.354Z,10.07
2019-02-08T12:03:28.609Z,7.07
2019-02-08T12:05:57.869Z,4.23
2019-02-08T12:08:27.352Z,6.53
2019-02-08T12:10:56.602Z,8.93
2019-02-08T12:13:25.886Z,5.40
2019-02-08T12:15:55.142Z,6.77
2019-02-08T12:18:24.392Z,6.93
2019-02-08T12:20:54.156Z,7.23
2019-02-08T12:23:23.455Z,8.00
2019-02-08T12:25:52.809Z,6.47
2019-02-08T12:28:22.063Z,8.17
2019-02-08T12:30:51.327Z,6.40
2019-02-08T12:33:20.637Z,4.30
2019-02-08T12:35:49.898Z,6.00
2019-02-08T12:38:19.297Z,5.13
2019-02-08T12:40:48.599Z,7.27
2019-02-08T12:43:17.974Z,4.10
2019-02-08T12:45:47.271Z,6.10
2019-02-08T12:48:16.548Z,5.03
2019-02-08T12:50:45.819Z,5.73
2019-02-08T12:53:15.093Z,6.27
2019-02-08T12:55:44.345Z,4.23
2019-02-08T12:58:13.657Z,5.43
2019-02-08T13:00:42.906Z,5.00
2019-02-08T13:03:12.164Z,5.90
2019-02-08T13:05:41.442Z,5.90
2019-02-08T13:08:10.783Z,4.30
2019-02-08T13:10:40.124Z,6.03
2019-02-08T13:13:09.411Z,4.30
2019-02-08T13:15:38.703Z,5.63
2019-02-08T13:18:07.977Z,5.43
2019-02-08T13:20:37.225Z,4.90
2019-02-08T13:23:06.514Z,6.23
2019-02-08T13:25:35.869Z,6.30
2019-02-08T13:28:05.152Z,5.33
2019-02-08T13:30:34.660Z,5.27
2019-02-08T13:33:04.107Z,5.90
2019-02-08T13:35:33.416Z,4.33
2019-02-08T13:38:03.119Z,4.70
2019-02-08T13:40:32.624Z,5.80
2019-02-08T13:43:01.907Z,6.17
2019-02-08T13:45:31.155Z,5.30
2019-02-08T13:48:00.538Z,9.70
2019-02-08T13:50:30.496Z,5.53
2019-02-08T13:52:59.798Z,4.27
2019-02-08T13:55:29.545Z,7.87
2019-02-08T13:57:58.794Z,6.93
2019-02-08T14:00:31.459Z,5.03
2019-02-08T14:03:01.218Z,5.43
2019-02-08T14:05:30.708Z,7.90
2019-02-08T14:07:59.953Z,4.10
2019-02-08T14:10:29.227Z,6.60
2019-02-08T14:12:58.530Z,5.03
2019-02-08T14:15:28.784Z,5.87
2019-02-08T14:17:58.057Z,6.30
2019-02-08T14:20:27.886Z,6.30
2019-02-08T14:22:57.171Z,10.50
2019-02-08T14:25:26.546Z,4.93
2019-02-08T14:27:55.807Z,9.47
2019-02-08T14:30:30.434Z,6.10
2019-02-08T14:33:00.921Z,8.87
2019-02-08T14:35:30.330Z,10.50
2019-02-08T14:38:00.626Z,8.73
2019-02-08T14:40:30.262Z,8.57
2019-02-08T14:42:59.527Z,6.30
2019-02-08T14:45:30.869Z,6.13
2019-02-08T14:48:01.611Z,8.07
2019-02-08T14:50:30.871Z,10.43
2019-02-08T14:53:01.616Z,5.97
2019-02-08T14:55:51.359Z,6.60
2019-02-08T14:58:20.759Z,10.40
2019-02-08T15:00:49.997Z,11.53
2019-02-08T15:03:19.254Z,7.20
2019-02-08T15:05:48.971Z,4.77
2019-02-08T15:08:18.205Z,6.83
2019-02-08T15:10:48.848Z,5.93
2019-02-08T15:13:18.117Z,6.17
2019-02-08T15:15:48.620Z,7.00
2019-02-08T15:18:18.729Z,6.70
2019-02-08T15:20:48.221Z,6.20
2019-02-08T15:23:17.559Z,5.90
2019-02-08T15:25:46.798Z,5.33
2019-02-08T15:28:16.072Z,5.40
2019-02-08T15:30:45.319Z,4.23
2019-02-08T15:33:14.573Z,10.90
2019-02-08T15:35:43.922Z,8.40
2019-02-08T15:38:13.163Z,4.33
2019-02-08T15:40:45.117Z,6.27
2019-02-08T15:43:15.413Z,3.60
2019-02-08T15:45:48.392Z,6.73
2019-02-08T15:48:17.742Z,6.93
2019-02-08T15:50:47.002Z,6.00
2019-02-08T15:53:16.291Z,6.07
2019-02-08T15:55:47.351Z,3.57
2019-02-08T15:58:16.884Z,6.93
2019-02-08T16:00:46.539Z,6.53
2019-02-08T16:03:15.999Z,8.03
2019-02-08T16:05:45.275Z,6.37
2019-02-08T16:08:14.540Z,5.23
2019-02-08T16:10:43.824Z,6.03
2019-02-08T16:13:13.109Z,5.97
2019-02-08T16:15:42.579Z,3.77
2019-02-08T16:18:12.132Z,4.83
2019-02-08T16:20:42.026Z,4.67
2019-02-08T16:23:11.504Z,6.60
2019-02-08T16:25:40.807Z,5.90
2019-02-08T16:28:10.079Z,7.27
2019-02-08T16:30:40.198Z,9.83
2019-02-08T16:33:09.527Z,7.87
2019-02-08T16:35:39.029Z,5.50
2019-02-08T16:38:08.462Z,5.27
2019-02-08T16:40:38.005Z,7.47
2019-02-08T16:43:09.027Z,6.07
2019-02-08T16:45:40.551Z,3.57
2019-02-08T16:48:10.958Z,3.47
2019-02-08T16:50:40.858Z,7.80
2019-02-08T16:53:10.813Z,7.80
2019-02-08T16:55:40.414Z,4.70
2019-02-08T16:58:10.404Z,7.40
2019-02-08T17:00:40.121Z,10.57
2019-02-08T17:03:11.424Z,5.30
2019-02-08T17:05:41.154Z,4.57
2019-02-08T17:08:11.333Z,5.70
2019-02-08T17:10:40.883Z,3.23
2019-02-08T17:13:10.258Z,6.67
2019-02-08T17:15:39.771Z,5.37
2019-02-08T17:18:09.266Z,9.97
2019-02-08T17:20:40.950Z,4.37
2019-02-08T17:23:12.494Z,9.20
2019-02-08T17:25:41.849Z,6.40
2019-02-08T17:28:13.047Z,6.07
2019-02-08T17:30:42.413Z,6.83
2019-02-08T17:33:12.385Z,4.07
2019-02-08T17:35:41.661Z,10.00
2019-02-08T17:38:12.257Z,5.83
2019-02-08T17:40:43.693Z,6.63
2019-02-08T17:43:14.282Z,7.70
2019-02-08T17:45:43.569Z,6.23
2019-02-08T17:48:15.149Z,8.50
2019-02-08T17:50:47.507Z,4.80
2019-02-08T17:53:16.793Z,5.53
2019-02-08T17:55:48.448Z,6.60
2019-02-08T17:58:19.007Z,7.83
2019-02-08T18:00:55.855Z,6.67
2019-02-08T18:03:25.482Z,7.17
2019-02-08T18:05:56.419Z,3.10
2019-02-08T18:08:27.074Z,6.37
2019-02-08T18:10:57.487Z,5.80
2019-02-08T18:13:28.342Z,6.50
2019-02-08T18:16:00.338Z,6.47
2019-02-08T18:18:31.522Z,4.87
2019-02-08T18:21:08.444Z,4.53
2019-02-08T18:23:39.038Z,7.67
2019-02-08T18:26:11.699Z,6.30
2019-02-08T18:28:41.250Z,5.40
2019-02-08T18:31:13.977Z,7.03
2019-02-08T18:33:44.625Z,5.57
2019-02-08T18:36:14.698Z,8.93
2019-02-08T18:38:45.169Z,7.37
2019-02-08T18:41:14.816Z,5.53
2019-02-08T18:43:44.489Z,7.70
2019-02-08T18:46:14.069Z,9.53
2019-02-08T18:48:45.682Z,6.17
2019-02-08T18:51:16.687Z,8.23
2019-02-08T18:53:47.946Z,7.30
2019-02-08T18:56:17.352Z,6.57
2019-02-08T18:58:48.016Z,7.23
2019-02-08T19:01:19.208Z,5.27
2019-02-08T19:03:48.704Z,7.17
2019-02-08T19:06:19.681Z,8.07
2019-02-08T19:08:50.586Z,10.47
2019-02-08T19:11:21.660Z,5.53
2019-02-08T19:13:52.706Z,4.30
2019-02-08T19:16:22.590Z,5.17
2019-02-08T19:18:54.973Z,6.50
2019-02-08T19:21:25.826Z,8.90
2019-02-08T19:23:56.694Z,8.23
2019-02-08T19:26:27.979Z,3.87
2019-02-08T19:28:58.454Z,6.53
2019-02-08T19:31:27.984Z,4.97
2019-02-08T19:33:57.611Z,5.97
2019-02-08T19:36:27.200Z,8.00
2019-02-08T19:38:58.027Z,5.43
2019-02-08T19:41:29.239Z,5.70
2019-02-08T19:44:01.272Z,5.43
2019-02-08T19:46:32.055Z,9.17
2019-02-08T19:49:01.703Z,4.23
2019-02-08T19:51:31.366Z,5.37
2019-02-08T19:54:02.449Z,5.60
2019-02-08T19:56:33.405Z,6.73
2019-02-08T19:59:03.220Z,8.53
2019-02-08T20:01:32.915Z,8.40
2019-02-08T20:04:03.663Z,7.37
2019-02-08T20:06:35.620Z,8.10
2019-02-08T20:09:09.552Z,5.20
2019-02-08T20:11:40.233Z,7.73
2019-02-08T20:14:12.397Z,7.37
2019-02-08T20:16:43.176Z,7.73
2019-02-08T20:19:13.264Z,6.23
2019-02-08T20:21:44.338Z,5.23
2019-02-08T20:24:15.125Z,3.10
2019-02-08T20:26:46.118Z,7.53
2019-02-08T20:29:17.500Z,5.23
2019-02-08T20:31:48.009Z,6.20
2019-02-08T20:34:17.688Z,8.50
2019-02-08T20:36:47.370Z,5.63
2019-02-08T20:39:18.048Z,8.60
2019-02-08T20:41:48.685Z,4.00
2019-02-08T20:44:21.211Z,4.90
2019-02-08T20:46:52.888Z,4.70
2019-02-08T20:49:28.282Z,4.80
2019-02-08T20:51:58.435Z,6.27
2019-02-08T20:54:29.189Z,3.70
2019-02-08T20:56:59.264Z,4.10
2019-02-08T20:59:29.049Z,10.10
2019-02-08T21:02:00.317Z,5.00
2019-02-08T21:04:31.735Z,5.63
2019-02-08T21:07:01.038Z,3.83
2019-02-08T21:09:30.310Z,4.77
2019-02-08T21:11:59.634Z,6.37
2019-02-08T21:14:28.995Z,3.33
2019-02-08T21:16:59.876Z,6.00
2019-02-08T21:19:29.169Z,3.47
2019-02-08T21:21:58.448Z,5.30
2019-02-08T21:24:27.797Z,3.77
2019-02-08T21:26:57.078Z,5.00
2019-02-08T21:29:26.413Z,4.27
2019-02-08T21:31:55.669Z,3.80
2019-02-08T21:34:24.990Z,2.63
2019-02-08T21:36:54.266Z,5.27
2019-02-08T21:39:23.540Z,3.20
2019-02-08T21:41:52.832Z,2.87
2019-02-08T21:44:22.102Z,3.93
2019-02-08T21:46:51.375Z,2.30
2019-02-08T21:49:20.653Z,2.80
2019-02-08T21:51:50.052Z,2.77
2019-02-08T21:54:19.327Z,2.20
2019-02-08T21:56:48.608Z,4.73
2019-02-08T21:59:17.896Z,4.80
2019-02-08T22:01:47.441Z,5.07
2019-02-08T22:04:16.721Z,6.30
2019-02-08T22:06:46.042Z,3.03
2019-02-08T22:09:15.631Z,4.60
2019-02-08T22:11:44.915Z,4.07
2019-02-08T22:14:14.163Z,3.63
2019-02-08T22:16:43.466Z,2.70
2019-02-08T22:19:12.710Z,2.03
2019-02-08T22:21:43.102Z,4.97
2019-02-08T22:24:12.351Z,4.30
2019-02-08T22:26:42.884Z,7.07
2019-02-08T22:29:14.443Z,4.23
2019-02-08T22:31:44.725Z,3.30
2019-02-08T22:34:15.156Z,5.30
2019-02-08T22:36:46.146Z,4.33
2019-02-08T22:39:17.171Z,2.17
2019-02-08T22:41:48.158Z,2.80
2019-02-08T22:44:19.263Z,4.93
2019-02-08T22:46:50.724Z,7.17
2019-02-08T22:49:21.573Z,6.67
2019-02-08T22:51:53.355Z,3.67
2019-02-08T22:54:23.935Z,3.93
2019-02-08T22:56:55.182Z,1.77
2019-02-08T22:59:25.050Z,3.17
2019-02-08T23:01:55.506Z,3.30
2019-02-08T23:04:24.810Z,4.67
2019-02-08T23:06:54.127Z,3.00
2019-02-08T23:09:24.599Z,3.73
2019-02-08T23:11:53.846Z,5.03
2019-02-08T23:14:23.562Z,3.97
2019-02-08T23:16:52.915Z,4.80
2019-02-08T23:19:22.207Z,4.17
2019-02-08T23:21:51.457Z,4.30
2019-02-08T23:24:20.742Z,6.17
2019-02-08T23:26:50.370Z,3.27
2019-02-08T23:29:19.637Z,2.33
2019-02-08T23:31:48.942Z,4.57
2019-02-08T23:34:18.353Z,3.83
2019-02-08T23:36:47.634Z,5.73
2019-02-08T23:39:16.915Z,3.17
2019-02-08T23:41:47.659Z,2.37
2019-02-08T23:44:16.935Z,4.10
2019-02-08T23:46:46.265Z,5.67
2019-02-08T23:49:17.241Z,4.40
2019-02-08T23:51:46.531Z,3.70
2019-02-08T23:54:16.243Z,5.13
2019-02-08T23:56:45.487Z,6.33
2019-02-08T23:59:16.232Z,3.40
